sensor_id;sensor_type;location;lat;lon;timestamp;P1;durP1;ratioP1;P2;durP2;ratioP2
74492;SDS011;62978;51.094;-115.362;2022-09-09T00:02:20;6.40;;;1.70;;
74492;SDS011;62978;51.094;-115.362;2022-09-09T00:10:29;5.70;;;1.40;;
74492;SDS011;62978;51.094;-115.362;2022-09-09T00:16:22;6.40;;;1.70;;
74492;SDS011;62978;51.094;-115.362;2022-09-09T00:24:36;4.40;;;1.70;;
74492;SDS011;62978;51.094;-115.362;2022-09-09T00:28:02;4.00;;;1.50;;
74492;SDS011;62978;51.094;-115.362;2022-09-09T00:30:17;4.70;;;1.40;;
74492;SDS011;62978;51.094;-115.362;2022-09-09T00:32:51;3.80;;;1.60;;
74492;SDS011;62978;51.094;-115.362;2022-09-09T00:35:37;3.70;;;1.60;;
74492;SDS011;62978;51.094;-115.362;2022-09-09T00:41:21;3.80;;;1.50;;
74492;SDS011;62978;51.094;-115.362;2022-09-09T00:44:32;4.40;;;1.70;;
74492;SDS011;62978;51.094;-115.362;2022-09-09T00:50:26;4.70;;;1.50;;
74492;SDS011;62978;51.094;-115.362;2022-09-09T00:53:23;6.10;;;1.40;;
74492;SDS011;62978;51.094;-115.362;2022-09-09T00:56:29;5.30;;;1.80;;
74492;SDS011;62978;51.094;-115.362;2022-09-09T01:02:50;4.20;;;1.60;;
74492;SDS011;62978;51.094;-115.362;2022-09-09T01:06:14;4.80;;;1.80;;
74492;SDS011;62978;51.094;-115.362;2022-09-09T01:12:07;4.60;;;1.80;;
74492;SDS011;62978;51.094;-115.362;2022-09-09T01:17:23;6.10;;;1.80;;
74492;SDS011;62978;51.094;-115.362;2022-09-09T01:20:14;5.40;;;2.10;;
74492;SDS011;62978;51.094;-115.362;2022-09-09T01:26:18;4.10;;;2.00;;
74492;SDS011;62978;51.094;-115.362;2022-09-09T01:29:11;3.40;;;1.50;;
74492;SDS011;62978;51.094;-115.362;2022-09-09T01:32:01;4.40;;;1.60;;
74492;SDS011;62978;51.094;-115.362;2022-09-09T01:34:50;6.40;;;2.00;;
74492;SDS011;62978;51.094;-115.362;2022-09-09T01:37:18;4.80;;;1.90;;
74492;SDS011;62978;51.094;-115.362;2022-09-09T01:39:46;6.00;;;2.00;;
74492;SDS011;62978;51.094;-115.362;2022-09-09T01:42:15;6.40;;;1.70;;
74492;SDS011;62978;51.094;-115.362;2022-09-09T01:44:43;3.70;;;1.60;;
74492;SDS011;62978;51.094;-115.362;2022-09-09T01:47:10;4.50;;;1.70;;
74492;SDS011;62978;51.094;-115.362;2022-09-09T01:49:56;4.80;;;1.90;;
74492;SDS011;62978;51.094;-115.362;2022-09-09T01:56:14;5.40;;;1.80;;
74492;SDS011;62978;51.094;-115.362;2022-09-09T02:04:47;6.80;;;2.60;;
74492;SDS011;62978;51.094;-115.362;2022-09-09T02:07:38;5.00;;;1.90;;
74492;SDS011;62978;51.094;-115.362;2022-09-09T02:10:37;4.70;;;1.90;;
74492;SDS011;62978;51.094;-115.362;2022-09-09T02:13:14;4.10;;;2.00;;
74492;SDS011;62978;51.094;-115.362;2022-09-09T02:15:58;4.60;;;1.90;;
74492;SDS011;62978;51.094;-115.362;2022-09-09T02:21:22;6.40;;;1.80;;
74492;SDS011;62978;51.094;-115.362;2022-09-09T02:23:53;7.50;;;1.90;;
74492;SDS011;62978;51.094;-115.362;2022-09-09T02:26:22;3.70;;;2.20;;
74492;SDS011;62978;51.094;-115.362;2022-09-09T02:28:55;5.30;;;2.00;;
74492;SDS011;62978;51.094;-115.362;2022-09-09T02:31:25;5.60;;;2.00;;
74492;SDS011;62978;51.094;-115.362;2022-09-09T02:33:57;5.90;;;2.10;;
74492;SDS011;62978;51.094;-115.362;2022-09-09T02:36:30;5.40;;;2.20;;
74492;SDS011;62978;51.094;-115.362;2022-09-09T02:39:00;5.40;;;2.00;;
74492;SDS011;62978;51.094;-115.362;2022-09-09T02:41:47;4.50;;;1.90;;
74492;SDS011;62978;51.094;-115.362;2022-09-09T02:44:16;6.90;;;2.20;;
74492;SDS011;62978;51.094;-115.362;2022-09-09T02:50:15;4.10;;;2.00;;
74492;SDS011;62978;51.094;-115.362;2022-09-09T02:55:47;3.90;;;2.10;;
74492;SDS011;62978;51.094;-115.362;2022-09-09T02:58:17;4.00;;;2.00;;
74492;SDS011;62978;51.094;-115.362;2022-09-09T03:00:50;5.50;;;2.10;;
74492;SDS011;62978;51.094;-115.362;2022-09-09T03:03:19;5.10;;;1.90;;
74492;SDS011;62978;51.094;-115.362;2022-09-09T03:05:47;5.30;;;2.10;;
74492;SDS011;62978;51.094;-115.362;2022-09-09T03:08:15;5.90;;;2.10;;
74492;SDS011;62978;51.094;-115.362;2022-09-09T03:10:43;5.20;;;2.20;;
74492;SDS011;62978;51.094;-115.362;2022-09-09T03:13:10;4.10;;;1.90;;
74492;SDS011;62978;51.094;-115.362;2022-09-09T03:15:42;5.20;;;2.20;;
74492;SDS011;62978;51.094;-115.362;2022-09-09T03:18:09;3.60;;;2.00;;
74492;SDS011;62978;51.094;-115.362;2022-09-09T03:20:36;3.90;;;2.00;;
74492;SDS011;62978;51.094;-115.362;2022-09-09T03:23:04;8.00;;;2.00;;
74492;SDS011;62978;51.094;-115.362;2022-09-09T03:25:31;4.40;;;1.90;;
74492;SDS011;62978;51.094;-115.362;2022-09-09T03:28:00;7.60;;;2.30;;
74492;SDS011;62978;51.094;-115.362;2022-09-09T03:30:28;4.00;;;2.30;;
74492;SDS011;62978;51.094;-115.362;2022-09-09T03:32:56;7.70;;;1.80;;
74492;SDS011;62978;51.094;-115.362;2022-09-09T03:35:23;6.70;;;2.30;;
74492;SDS011;62978;51.094;-115.362;2022-09-09T03:37:51;3.70;;;2.00;;
74492;SDS011;62978;51.094;-115.362;2022-09-09T03:40:18;5.30;;;2.20;;
74492;SDS011;62978;51.094;-115.362;2022-09-09T03:42:46;4.50;;;1.90;;
74492;SDS011;62978;51.094;-115.362;2022-09-09T03:45:14;4.70;;;2.30;;
74492;SDS011;62978;51.094;-115.362;2022-09-09T03:47:41;6.10;;;2.80;;
74492;SDS011;62978;51.094;-115.362;2022-09-09T03:50:08;5.50;;;2.20;;
74492;SDS011;62978;51.094;-115.362;2022-09-09T03:52:38;4.80;;;2.60;;
74492;SDS011;62978;51.094;-115.362;2022-09-09T03:55:08;5.20;;;2.30;;
74492;SDS011;62978;51.094;-115.362;2022-09-09T03:57:36;4.60;;;2.40;;
74492;SDS011;62978;51.094;-115.362;2022-09-09T04:00:04;5.80;;;2.60;;
74492;SDS011;62978;51.094;-115.362;2022-09-09T04:02:33;4.80;;;2.40;;
74492;SDS011;62978;51.094;-115.362;2022-09-09T04:05:00;6.20;;;2.10;;
74492;SDS011;62978;51.094;-115.362;2022-09-09T04:07:27;5.50;;;2.20;;
74492;SDS011;62978;51.094;-115.362;2022-09-09T04:09:54;6.80;;;2.20;;
74492;SDS011;62978;51.094;-115.362;2022-09-09T04:12:23;5.40;;;2.20;;
74492;SDS011;62978;51.094;-115.362;2022-09-09T04:14:50;5.80;;;2.40;;
74492;SDS011;62978;51.094;-115.362;2022-09-09T04:17:17;5.60;;;2.10;;
74492;SDS011;62978;51.094;-115.362;2022-09-09T04:19:44;5.60;;;2.50;;
74492;SDS011;62978;51.094;-115.362;2022-09-09T04:22:12;6.00;;;2.50;;
74492;SDS011;62978;51.094;-115.362;2022-09-09T04:24:39;5.80;;;2.30;;
74492;SDS011;62978;51.094;-115.362;2022-09-09T04:27:06;7.20;;;2.70;;
74492;SDS011;62978;51.094;-115.362;2022-09-09T04:29:33;5.60;;;2.20;;
74492;SDS011;62978;51.094;-115.362;2022-09-09T04:32:01;6.40;;;2.60;;
74492;SDS011;62978;51.094;-115.362;2022-09-09T04:34:28;6.70;;;2.20;;
74492;SDS011;62978;51.094;-115.362;2022-09-09T04:36:56;5.10;;;2.40;;
74492;SDS011;62978;51.094;-115.362;2022-09-09T04:39:24;4.50;;;2.20;;
74492;SDS011;62978;51.094;-115.362;2022-09-09T04:41:51;4.10;;;2.10;;
74492;SDS011;62978;51.094;-115.362;2022-09-09T04:44:19;4.50;;;2.70;;
74492;SDS011;62978;51.094;-115.362;2022-09-09T04:46:46;7.60;;;2.40;;
74492;SDS011;62978;51.094;-115.362;2022-09-09T04:49:13;7.80;;;2.80;;
74492;SDS011;62978;51.094;-115.362;2022-09-09T04:51:40;4.80;;;2.40;;
74492;SDS011;62978;51.094;-115.362;2022-09-09T04:54:08;5.00;;;2.40;;
74492;SDS011;62978;51.094;-115.362;2022-09-09T04:56:37;7.10;;;3.10;;
74492;SDS011;62978;51.094;-115.362;2022-09-09T04:59:04;6.20;;;2.60;;
74492;SDS011;62978;51.094;-115.362;2022-09-09T05:01:32;5.80;;;2.80;;
74492;SDS011;62978;51.094;-115.362;2022-09-09T05:04:00;5.10;;;2.50;;
74492;SDS011;62978;51.094;-115.362;2022-09-09T05:06:28;6.00;;;2.80;;
74492;SDS011;62978;51.094;-115.362;2022-09-09T05:08:57;6.40;;;2.70;;
74492;SDS011;62978;51.094;-115.362;2022-09-09T05:11:27;6.10;;;2.70;;
74492;SDS011;62978;51.094;-115.362;2022-09-09T05:14:02;6.40;;;2.60;;
74492;SDS011;62978;51.094;-115.362;2022-09-09T05:16:30;5.70;;;2.40;;
74492;SDS011;62978;51.094;-115.362;2022-09-09T05:18:57;6.20;;;2.50;;
74492;SDS011;62978;51.094;-115.362;2022-09-09T05:21:25;6.60;;;2.30;;
74492;SDS011;62978;51.094;-115.362;2022-09-09T05:23:52;5.70;;;2.20;;
74492;SDS011;62978;51.094;-115.362;2022-09-09T05:26:21;5.20;;;2.00;;
74492;SDS011;62978;51.094;-115.362;2022-09-09T05:28:50;6.50;;;2.60;;
74492;SDS011;62978;51.094;-115.362;2022-09-09T05:31:18;7.40;;;2.40;;
74492;SDS011;62978;51.094;-115.362;2022-09-09T05:33:46;7.30;;;2.60;;
74492;SDS011;62978;51.094;-115.362;2022-09-09T05:36:19;6.00;;;2.60;;
74492;SDS011;62978;51.094;-115.362;2022-09-09T05:38:47;5.20;;;2.30;;
74492;SDS011;62978;51.094;-115.362;2022-09-09T05:41:16;4.30;;;2.40;;
74492;SDS011;62978;51.094;-115.362;2022-09-09T05:43:44;3.80;;;2.30;;
74492;SDS011;62978;51.094;-115.362;2022-09-09T05:46:17;4.80;;;2.70;;
74492;SDS011;62978;51.094;-115.362;2022-09-09T05:48:47;5.60;;;2.70;;
74492;SDS011;62978;51.094;-115.362;2022-09-09T05:51:21;7.70;;;2.40;;
74492;SDS011;62978;51.094;-115.362;2022-09-09T05:53:51;3.50;;;2.00;;
74492;SDS011;62978;51.094;-115.362;2022-09-09T05:56:20;9.10;;;2.40;;
74492;SDS011;62978;51.094;-115.362;2022-09-09T05:58:50;5.60;;;1.80;;
74492;SDS011;62978;51.094;-115.362;2022-09-09T06:01:30;6.10;;;2.50;;
74492;SDS011;62978;51.094;-115.362;2022-09-09T06:03:59;7.10;;;2.60;;
74492;SDS011;62978;51.094;-115.362;2022-09-09T06:06:32;6.70;;;2.30;;
74492;SDS011;62978;51.094;-115.362;2022-09-09T06:09:07;6.00;;;2.50;;
74492;SDS011;62978;51.094;-115.362;2022-09-09T06:11:40;4.30;;;2.20;;
74492;SDS011;62978;51.094;-115.362;2022-09-09T06:14:07;7.50;;;2.70;;
74492;SDS011;62978;51.094;-115.362;2022-09-09T06:16:35;7.00;;;2.50;;
74492;SDS011;62978;51.094;-115.362;2022-09-09T06:19:05;4.60;;;2.00;;
74492;SDS011;62978;51.094;-115.362;2022-09-09T06:21:34;3.90;;;1.20;;
74492;SDS011;62978;51.094;-115.362;2022-09-09T06:24:03;2.80;;;0.90;;
74492;SDS011;62978;51.094;-115.362;2022-09-09T06:26:36;2.40;;;1.10;;
74492;SDS011;62978;51.094;-115.362;2022-09-09T06:29:09;3.70;;;1.10;;
74492;SDS011;62978;51.094;-115.362;2022-09-09T06:31:37;1.80;;;1.20;;
74492;SDS011;62978;51.094;-115.362;2022-09-09T06:34:06;2.20;;;0.90;;
74492;SDS011;62978;51.094;-115.362;2022-09-09T06:36:36;1.20;;;0.80;;
74492;SDS011;62978;51.094;-115.362;2022-09-09T06:39:05;4.10;;;0.90;;
74492;SDS011;62978;51.094;-115.362;2022-09-09T06:41:33;3.40;;;1.00;;
74492;SDS011;62978;51.094;-115.362;2022-09-09T06:44:01;3.50;;;1.30;;
74492;SDS011;62978;51.094;-115.362;2022-09-09T06:46:30;8.00;;;1.30;;
74492;SDS011;62978;51.094;-115.362;2022-09-09T06:48:59;3.70;;;1.20;;
74492;SDS011;62978;51.094;-115.362;2022-09-09T06:51:32;5.20;;;1.30;;
74492;SDS011;62978;51.094;-115.362;2022-09-09T06:54:02;2.80;;;1.20;;
74492;SDS011;62978;51.094;-115.362;2022-09-09T06:56:38;3.50;;;1.40;;
74492;SDS011;62978;51.094;-115.362;2022-09-09T06:59:08;3.00;;;1.00;;
74492;SDS011;62978;51.094;-115.362;2022-09-09T07:01:38;3.60;;;1.10;;
74492;SDS011;62978;51.094;-115.362;2022-09-09T07:04:07;2.50;;;1.10;;
74492;SDS011;62978;51.094;-115.362;2022-09-09T07:06:39;4.10;;;0.90;;
74492;SDS011;62978;51.094;-115.362;2022-09-09T07:09:11;2.40;;;0.80;;
74492;SDS011;62978;51.094;-115.362;2022-09-09T07:11:44;3.80;;;0.90;;
74492;SDS011;62978;51.094;-115.362;2022-09-09T07:14:14;2.50;;;0.80;;
74492;SDS011;62978;51.094;-115.362;2022-09-09T07:16:42;2.60;;;1.00;;
74492;SDS011;62978;51.094;-115.362;2022-09-09T07:19:11;5.30;;;1.00;;
74492;SDS011;62978;51.094;-115.362;2022-09-09T07:21:40;5.90;;;1.20;;
74492;SDS011;62978;51.094;-115.362;2022-09-09T07:24:08;2.80;;;1.10;;
74492;SDS011;62978;51.094;-115.362;2022-09-09T07:26:37;3.00;;;0.90;;
74492;SDS011;62978;51.094;-115.362;2022-09-09T07:29:06;2.10;;;0.50;;
74492;SDS011;62978;51.094;-115.362;2022-09-09T07:31:36;1.80;;;0.70;;
74492;SDS011;62978;51.094;-115.362;2022-09-09T07:34:06;1.30;;;0.60;;
74492;SDS011;62978;51.094;-115.362;2022-09-09T07:36:36;2.60;;;1.00;;
74492;SDS011;62978;51.094;-115.362;2022-09-09T07:39:07;2.40;;;1.20;;
74492;SDS011;62978;51.094;-115.362;2022-09-09T07:41:42;2.20;;;0.80;;
74492;SDS011;62978;51.094;-115.362;2022-09-09T07:44:13;2.90;;;0.80;;
74492;SDS011;62978;51.094;-115.362;2022-09-09T07:46:42;2.70;;;0.90;;
74492;SDS011;62978;51.094;-115.362;2022-09-09T07:49:11;2.20;;;0.90;;
74492;SDS011;62978;51.094;-115.362;2022-09-09T07:51:41;2.50;;;1.00;;
74492;SDS011;62978;51.094;-115.362;2022-09-09T07:54:13;3.10;;;1.00;;
74492;SDS011;62978;51.094;-115.362;2022-09-09T07:56:42;3.90;;;1.40;;
74492;SDS011;62978;51.094;-115.362;2022-09-09T07:59:09;6.40;;;1.10;;
74492;SDS011;62978;51.094;-115.362;2022-09-09T08:01:43;2.20;;;0.90;;
74492;SDS011;62978;51.094;-115.362;2022-09-09T08:04:20;3.20;;;1.00;;
74492;SDS011;62978;51.094;-115.362;2022-09-09T08:06:54;3.90;;;1.10;;
74492;SDS011;62978;51.094;-115.362;2022-09-09T08:09:24;3.80;;;1.00;;
74492;SDS011;62978;51.094;-115.362;2022-09-09T08:11:56;3.50;;;1.20;;
74492;SDS011;62978;51.094;-115.362;2022-09-09T08:14:24;2.60;;;0.80;;
74492;SDS011;62978;51.094;-115.362;2022-09-09T08:16:52;1.80;;;0.70;;
74492;SDS011;62978;51.094;-115.362;2022-09-09T08:19:20;1.30;;;0.50;;
74492;SDS011;62978;51.094;-115.362;2022-09-09T08:21:47;3.00;;;0.50;;
74492;SDS011;62978;51.094;-115.362;2022-09-09T08:24:15;2.50;;;0.70;;
74492;SDS011;62978;51.094;-115.362;2022-09-09T08:26:44;1.70;;;0.70;;
74492;SDS011;62978;51.094;-115.362;2022-09-09T08:29:15;2.50;;;0.70;;
74492;SDS011;62978;51.094;-115.362;2022-09-09T08:31:44;1.20;;;0.80;;
74492;SDS011;62978;51.094;-115.362;2022-09-09T08:34:14;3.90;;;0.70;;
74492;SDS011;62978;51.094;-115.362;2022-09-09T08:36:44;2.90;;;0.80;;
74492;SDS011;62978;51.094;-115.362;2022-09-09T08:39:14;2.10;;;0.50;;
74492;SDS011;62978;51.094;-115.362;2022-09-09T08:50:46;1.20;;;0.70;;
74492;SDS011;62978;51.094;-115.362;2022-09-09T08:53:22;1.60;;;0.80;;
74492;SDS011;62978;51.094;-115.362;2022-09-09T08:56:08;1.20;;;0.70;;
74492;SDS011;62978;51.094;-115.362;2022-09-09T08:58:50;1.30;;;0.50;;
74492;SDS011;62978;51.094;-115.362;2022-09-09T09:01:33;1.00;;;0.60;;
74492;SDS011;62978;51.094;-115.362;2022-09-09T09:04:33;2.00;;;0.60;;
74492;SDS011;62978;51.094;-115.362;2022-09-09T09:07:55;1.80;;;0.70;;
74492;SDS011;62978;51.094;-115.362;2022-09-09T09:13:40;1.60;;;0.70;;
74492;SDS011;62978;51.094;-115.362;2022-09-09T09:16:33;1.00;;;0.60;;
74492;SDS011;62978;51.094;-115.362;2022-09-09T09:19:21;1.00;;;0.40;;
74492;SDS011;62978;51.094;-115.362;2022-09-09T09:22:04;1.30;;;0.60;;
74492;SDS011;62978;51.094;-115.362;2022-09-09T09:24:55;1.20;;;0.50;;
74492;SDS011;62978;51.094;-115.362;2022-09-09T09:27:43;1.20;;;0.60;;
74492;SDS011;62978;51.094;-115.362;2022-09-09T09:30:21;1.70;;;0.50;;
74492;SDS011;62978;51.094;-115.362;2022-09-09T09:33:03;1.90;;;0.50;;
74492;SDS011;62978;51.094;-115.362;2022-09-09T09:35:40;2.40;;;0.70;;
74492;SDS011;62978;51.094;-115.362;2022-09-09T09:38:34;1.40;;;0.80;;
74492;SDS011;62978;51.094;-115.362;2022-09-09T09:41:02;2.30;;;0.60;;
74492;SDS011;62978;51.094;-115.362;2022-09-09T09:43:39;2.00;;;0.40;;
74492;SDS011;62978;51.094;-115.362;2022-09-09T09:46:22;1.00;;;0.40;;
74492;SDS011;62978;51.094;-115.362;2022-09-09T09:49:02;1.70;;;0.50;;
74492;SDS011;62978;51.094;-115.362;2022-09-09T09:51:33;1.00;;;0.50;;
74492;SDS011;62978;51.094;-115.362;2022-09-09T09:54:22;2.10;;;0.80;;
74492;SDS011;62978;51.094;-115.362;2022-09-09T09:56:55;2.50;;;0.70;;
74492;SDS011;62978;51.094;-115.362;2022-09-09T10:02:36;2.20;;;0.60;;
74492;SDS011;62978;51.094;-115.362;2022-09-09T10:07:42;2.10;;;0.60;;
74492;SDS011;62978;51.094;-115.362;2022-09-09T10:10:20;2.60;;;0.80;;
74492;SDS011;62978;51.094;-115.362;2022-09-09T10:13:20;1.70;;;0.70;;
74492;SDS011;62978;51.094;-115.362;2022-09-09T10:16:22;1.70;;;0.80;;
74492;SDS011;62978;51.094;-115.362;2022-09-09T10:19:16;1.50;;;0.60;;
74492;SDS011;62978;51.094;-115.362;2022-09-09T10:24:53;1.60;;;0.60;;
74492;SDS011;62978;51.094;-115.362;2022-09-09T10:27:54;3.00;;;0.60;;
74492;SDS011;62978;51.094;-115.362;2022-09-09T10:36:45;1.70;;;0.70;;
74492;SDS011;62978;51.094;-115.362;2022-09-09T10:42:09;1.50;;;0.60;;
74492;SDS011;62978;51.094;-115.362;2022-09-09T10:48:04;1.40;;;0.50;;
74492;SDS011;62978;51.094;-115.362;2022-09-09T10:56:16;1.80;;;0.90;;
74492;SDS011;62978;51.094;-115.362;2022-09-09T10:58:49;2.50;;;0.70;;
74492;SDS011;62978;51.094;-115.362;2022-09-09T11:01:37;1.70;;;0.60;;
74492;SDS011;62978;51.094;-115.362;2022-09-09T11:04:42;1.30;;;0.40;;
74492;SDS011;62978;51.094;-115.362;2022-09-09T11:08:05;1.00;;;0.60;;
74492;SDS011;62978;51.094;-115.362;2022-09-09T11:21:46;1.50;;;0.80;;
74492;SDS011;62978;51.094;-115.362;2022-09-09T11:24:21;2.60;;;0.80;;
74492;SDS011;62978;51.094;-115.362;2022-09-09T11:27:09;2.00;;;0.90;;
74492;SDS011;62978;51.094;-115.362;2022-09-09T11:30:15;2.00;;;0.70;;
74492;SDS011;62978;51.094;-115.362;2022-09-09T11:36:11;1.30;;;0.70;;
74492;SDS011;62978;51.094;-115.362;2022-09-09T11:42:15;3.20;;;1.10;;
74492;SDS011;62978;51.094;-115.362;2022-09-09T11:44:45;3.00;;;1.20;;
74492;SDS011;62978;51.094;-115.362;2022-09-09T11:47:28;2.70;;;1.40;;
74492;SDS011;62978;51.094;-115.362;2022-09-09T11:52:44;2.10;;;0.80;;
74492;SDS011;62978;51.094;-115.362;2022-09-09T11:58:00;4.20;;;1.10;;
74492;SDS011;62978;51.094;-115.362;2022-09-09T12:06:30;2.30;;;1.00;;
74492;SDS011;62978;51.094;-115.362;2022-09-09T12:09:24;2.40;;;1.00;;
74492;SDS011;62978;51.094;-115.362;2022-09-09T12:14:44;1.80;;;0.90;;
74492;SDS011;62978;51.094;-115.362;2022-09-09T12:17:28;2.00;;;0.90;;
74492;SDS011;62978;51.094;-115.362;2022-09-09T12:20:08;2.00;;;0.90;;
74492;SDS011;62978;51.094;-115.362;2022-09-09T12:31:42;3.30;;;0.90;;
74492;SDS011;62978;51.094;-115.362;2022-09-09T12:34:33;2.60;;;0.90;;
74492;SDS011;62978;51.094;-115.362;2022-09-09T12:40:02;1.80;;;0.90;;
74492;SDS011;62978;51.094;-115.362;2022-09-09T12:42:45;2.00;;;0.80;;
74492;SDS011;62978;51.094;-115.362;2022-09-09T12:45:17;3.80;;;1.20;;
74492;SDS011;62978;51.094;-115.362;2022-09-09T12:48:03;2.90;;;1.30;;
74492;SDS011;62978;51.094;-115.362;2022-09-09T12:50:48;1.70;;;0.80;;
74492;SDS011;62978;51.094;-115.362;2022-09-09T12:58:30;3.20;;;1.10;;
74492;SDS011;62978;51.094;-115.362;2022-09-09T13:01:03;2.40;;;0.70;;
74492;SDS011;62978;51.094;-115.362;2022-09-09T13:03:33;3.40;;;0.80;;
74492;SDS011;62978;51.094;-115.362;2022-09-09T13:06:17;2.80;;;0.90;;
74492;SDS011;62978;51.094;-115.362;2022-09-09T13:09:02;2.00;;;1.20;;
74492;SDS011;62978;51.094;-115.362;2022-09-09T13:11:41;3.50;;;0.90;;
74492;SDS011;62978;51.094;-115.362;2022-09-09T13:14:34;3.00;;;1.40;;
74492;SDS011;62978;51.094;-115.362;2022-09-09T13:17:14;1.80;;;1.20;;
74492;SDS011;62978;51.094;-115.362;2022-09-09T13:19:46;1.40;;;0.70;;
74492;SDS011;62978;51.094;-115.362;2022-09-09T13:22:36;3.30;;;1.00;;
74492;SDS011;62978;51.094;-115.362;2022-09-09T13:27:40;2.00;;;1.10;;
74492;SDS011;62978;51.094;-115.362;2022-09-09T13:30:23;2.20;;;1.00;;
74492;SDS011;62978;51.094;-115.362;2022-09-09T13:35:55;3.00;;;1.30;;
74492;SDS011;62978;51.094;-115.362;2022-09-09T13:38:23;2.60;;;1.20;;
74492;SDS011;62978;51.094;-115.362;2022-09-09T13:40:59;2.20;;;0.90;;
74492;SDS011;62978;51.094;-115.362;2022-09-09T13:43:42;2.50;;;1.40;;
74492;SDS011;62978;51.094;-115.362;2022-09-09T13:46:36;1.50;;;0.80;;
74492;SDS011;62978;51.094;-115.362;2022-09-09T13:51:49;3.00;;;0.90;;
74492;SDS011;62978;51.094;-115.362;2022-09-09T13:54:20;1.80;;;0.90;;
74492;SDS011;62978;51.094;-115.362;2022-09-09T13:56:48;3.70;;;1.60;;
74492;SDS011;62978;51.094;-115.362;2022-09-09T13:59:18;2.50;;;1.30;;
74492;SDS011;62978;51.094;-115.362;2022-09-09T14:01:46;3.50;;;1.50;;
74492;SDS011;62978;51.094;-115.362;2022-09-09T14:04:15;3.50;;;1.40;;
74492;SDS011;62978;51.094;-115.362;2022-09-09T14:06:43;3.50;;;1.60;;
74492;SDS011;62978;51.094;-115.362;2022-09-09T14:09:14;2.10;;;1.10;;
74492;SDS011;62978;51.094;-115.362;2022-09-09T14:11:43;8.60;;;1.80;;
74492;SDS011;62978;51.094;-115.362;2022-09-09T14:14:12;5.10;;;2.20;;
74492;SDS011;62978;51.094;-115.362;2022-09-09T14:16:39;4.10;;;1.70;;
74492;SDS011;62978;51.094;-115.362;2022-09-09T14:19:08;3.00;;;1.20;;
74492;SDS011;62978;51.094;-115.362;2022-09-09T14:21:35;2.70;;;0.80;;
74492;SDS011;62978;51.094;-115.362;2022-09-09T14:24:03;3.00;;;1.40;;
74492;SDS011;62978;51.094;-115.362;2022-09-09T14:26:30;2.00;;;1.10;;
74492;SDS011;62978;51.094;-115.362;2022-09-09T14:28:58;1.90;;;0.70;;
74492;SDS011;62978;51.094;-115.362;2022-09-09T14:31:27;1.30;;;0.70;;
74492;SDS011;62978;51.094;-115.362;2022-09-09T14:33:54;1.90;;;1.00;;
74492;SDS011;62978;51.094;-115.362;2022-09-09T14:36:21;2.70;;;1.40;;
74492;SDS011;62978;51.094;-115.362;2022-09-09T14:38:50;2.60;;;1.30;;
74492;SDS011;62978;51.094;-115.362;2022-09-09T14:41:19;2.90;;;1.40;;
74492;SDS011;62978;51.094;-115.362;2022-09-09T14:43:48;2.60;;;1.40;;
74492;SDS011;62978;51.094;-115.362;2022-09-09T14:46:17;2.10;;;1.20;;
74492;SDS011;62978;51.094;-115.362;2022-09-09T14:48:46;2.90;;;1.50;;
74492;SDS011;62978;51.094;-115.362;2022-09-09T14:51:22;3.90;;;1.70;;
74492;SDS011;62978;51.094;-115.362;2022-09-09T14:53:58;4.60;;;1.60;;
74492;SDS011;62978;51.094;-115.362;2022-09-09T14:56:30;4.80;;;1.70;;
74492;SDS011;62978;51.094;-115.362;2022-09-09T14:59:02;2.70;;;1.30;;
74492;SDS011;62978;51.094;-115.362;2022-09-09T15:01:30;1.50;;;0.70;;
74492;SDS011;62978;51.094;-115.362;2022-09-09T15:04:03;2.50;;;1.20;;
74492;SDS011;62978;51.094;-115.362;2022-09-09T15:06:34;1.00;;;0.70;;
74492;SDS011;62978;51.094;-115.362;2022-09-09T15:09:07;3.10;;;1.50;;
74492;SDS011;62978;51.094;-115.362;2022-09-09T15:11:36;2.50;;;1.20;;
74492;SDS011;62978;51.094;-115.362;2022-09-09T15:14:05;2.40;;;1.00;;
74492;SDS011;62978;51.094;-115.362;2022-09-09T15:16:33;3.60;;;1.30;;
74492;SDS011;62978;51.094;-115.362;2022-09-09T15:19:01;2.70;;;1.10;;
74492;SDS011;62978;51.094;-115.362;2022-09-09T15:21:32;4.30;;;1.50;;
74492;SDS011;62978;51.094;-115.362;2022-09-09T15:24:00;4.70;;;1.80;;
74492;SDS011;62978;51.094;-115.362;2022-09-09T15:26:28;2.40;;;1.20;;
74492;SDS011;62978;51.094;-115.362;2022-09-09T15:28:56;4.10;;;1.80;;
74492;SDS011;62978;51.094;-115.362;2022-09-09T15:31:27;3.50;;;1.20;;
74492;SDS011;62978;51.094;-115.362;2022-09-09T15:34:02;2.30;;;1.00;;
74492;SDS011;62978;51.094;-115.362;2022-09-09T15:36:33;3.70;;;1.80;;
74492;SDS011;62978;51.094;-115.362;2022-09-09T15:39:01;3.30;;;1.60;;
74492;SDS011;62978;51.094;-115.362;2022-09-09T15:41:30;3.40;;;1.50;;
74492;SDS011;62978;51.094;-115.362;2022-09-09T15:44:00;4.10;;;1.80;;
74492;SDS011;62978;51.094;-115.362;2022-09-09T15:46:56;3.30;;;1.80;;
74492;SDS011;62978;51.094;-115.362;2022-09-09T15:49:25;2.80;;;1.60;;
74492;SDS011;62978;51.094;-115.362;2022-09-09T15:54:24;3.20;;;1.40;;
74492;SDS011;62978;51.094;-115.362;2022-09-09T15:56:57;3.20;;;1.70;;
74492;SDS011;62978;51.094;-115.362;2022-09-09T15:59:29;3.40;;;1.80;;
74492;SDS011;62978;51.094;-115.362;2022-09-09T16:01:57;4.30;;;1.90;;
74492;SDS011;62978;51.094;-115.362;2022-09-09T16:04:27;2.80;;;1.50;;
74492;SDS011;62978;51.094;-115.362;2022-09-09T16:07:00;3.00;;;1.60;;
74492;SDS011;62978;51.094;-115.362;2022-09-09T16:09:29;2.70;;;1.40;;
74492;SDS011;62978;51.094;-115.362;2022-09-09T16:11:59;3.40;;;1.80;;
74492;SDS011;62978;51.094;-115.362;2022-09-09T16:14:27;2.20;;;1.10;;
74492;SDS011;62978;51.094;-115.362;2022-09-09T16:16:54;2.60;;;1.50;;
74492;SDS011;62978;51.094;-115.362;2022-09-09T16:19:22;3.50;;;1.40;;
74492;SDS011;62978;51.094;-115.362;2022-09-09T16:21:49;3.30;;;1.10;;
74492;SDS011;62978;51.094;-115.362;2022-09-09T16:24:19;2.80;;;1.30;;
74492;SDS011;62978;51.094;-115.362;2022-09-09T16:26:49;7.70;;;1.80;;
74492;SDS011;62978;51.094;-115.362;2022-09-09T16:29:19;2.70;;;1.40;;
74492;SDS011;62978;51.094;-115.362;2022-09-09T16:31:48;2.50;;;1.20;;
74492;SDS011;62978;51.094;-115.362;2022-09-09T16:34:16;2.80;;;1.30;;
74492;SDS011;62978;51.094;-115.362;2022-09-09T16:36:45;2.80;;;1.20;;
74492;SDS011;62978;51.094;-115.362;2022-09-09T16:39:15;2.40;;;1.30;;
74492;SDS011;62978;51.094;-115.362;2022-09-09T16:41:45;3.20;;;1.40;;
74492;SDS011;62978;51.094;-115.362;2022-09-09T16:44:16;2.30;;;1.30;;
74492;SDS011;62978;51.094;-115.362;2022-09-09T16:46:46;2.50;;;1.50;;
74492;SDS011;62978;51.094;-115.362;2022-09-09T16:49:20;3.10;;;1.50;;
74492;SDS011;62978;51.094;-115.362;2022-09-09T16:51:50;5.10;;;1.30;;
74492;SDS011;62978;51.094;-115.362;2022-09-09T16:54:20;1.80;;;1.30;;
74492;SDS011;62978;51.094;-115.362;2022-09-09T16:56:49;3.10;;;1.40;;
74492;SDS011;62978;51.094;-115.362;2022-09-09T16:59:19;2.00;;;1.10;;
74492;SDS011;62978;51.094;-115.362;2022-09-09T17:01:50;2.30;;;1.30;;
74492;SDS011;62978;51.094;-115.362;2022-09-09T17:04:22;5.80;;;1.60;;
74492;SDS011;62978;51.094;-115.362;2022-09-09T17:06:55;1.90;;;1.10;;
74492;SDS011;62978;51.094;-115.362;2022-09-09T17:09:24;2.70;;;1.20;;
74492;SDS011;62978;51.094;-115.362;2022-09-09T17:11:54;1.90;;;0.80;;
74492;SDS011;62978;51.094;-115.362;2022-09-09T17:14:22;4.90;;;1.60;;
74492;SDS011;62978;51.094;-115.362;2022-09-09T17:16:50;3.50;;;1.60;;
74492;SDS011;62978;51.094;-115.362;2022-09-09T17:19:17;4.00;;;1.40;;